createdAt,value
2018-11-20T03:05:25.819Z,8.83
2018-11-20T05:34:05.982Z,10.53
2018-11-20T08:51:19.215Z,13.17
2018-11-20T08:54:41.074Z,13.07
2018-11-20T08:58:15.071Z,12.93
2018-11-20T09:01:04.743Z,14.07
2018-11-20T09:03:57.818Z,13.50
2018-11-20T09:06:45.208Z,14.73
2018-11-20T09:09:31.296Z,13.87
2018-11-20T09:12:18.692Z,14.50
2018-11-20T09:15:04.704Z,14.00
2018-11-20T09:18:07.129Z,15.50
2018-11-20T09:20:53.211Z,13.97
2018-11-20T09:23:39.064Z,15.10
2018-11-20T09:26:29.726Z,14.97
2018-11-20T09:29:27.165Z,15.90
2018-11-20T09:32:21.208Z,15.20
2018-11-20T09:35:08.398Z,15.30
2018-11-20T09:38:04.875Z,15.50
2018-11-20T09:40:58.335Z,15.40
2018-11-20T09:43:45.212Z,14.63
2018-11-20T09:46:40.571Z,16.37
2018-11-20T09:52:43.150Z,15.00
2018-11-20T09:55:30.644Z,15.57
2018-11-20T09:58:37.402Z,15.13
2018-11-20T10:01:24.206Z,16.97
2018-11-20T10:04:20.490Z,16.17
2018-11-20T10:07:06.805Z,16.73
2018-11-20T10:09:54.107Z,15.43
2018-11-20T10:12:56.495Z,15.20
2018-11-20T10:15:52.911Z,17.13
2018-11-20T10:18:47.690Z,17.60
2018-11-20T10:21:54.463Z,16.90
2018-11-20T17:52:13.264Z,20.63
2018-11-20T17:55:03.657Z,23.73
2018-11-20T17:57:49.794Z,19.87
2018-11-20T18:00:52.099Z,19.80
2018-11-20T18:03:38.625Z,20.53
2018-11-20T18:06:37.950Z,20.40
2018-11-20T18:09:32.944Z,18.97
2018-11-20T18:12:18.900Z,17.90
2018-11-20T18:15:14.743Z,19.10
2018-11-20T18:18:02.170Z,20.37
2018-11-20T18:20:59.733Z,19.53
2018-11-20T18:23:50.087Z,19.63
2018-11-20T18:26:26.136Z,18.50
2018-11-20T18:29:25.826Z,17.93
2018-11-20T18:32:11.779Z,19.37
2018-11-20T18:35:02.149Z,18.63
2018-11-20T18:37:48.497Z,18.33
2018-11-20T18:40:43.384Z,18.33
2018-11-20T18:43:21.731Z,17.57
2018-11-20T18:46:07.913Z,18.03
2018-11-20T18:49:13.375Z,18.20
2018-11-20T18:52:03.476Z,18.70
2018-11-20T18:55:02.990Z,21.00
2018-11-20T18:57:41.874Z,18.63
2018-11-20T19:00:32.124Z,17.80
2018-11-20T19:03:18.094Z,18.67
2018-11-20T19:06:08.883Z,18.13
2018-11-20T19:09:02.263Z,17.40
2018-11-20T19:11:48.299Z,16.40
2018-11-20T19:14:38.468Z,17.13
2018-11-20T19:17:24.864Z,17.87
2018-11-20T19:20:21.179Z,16.70
2018-11-20T19:23:07.479Z,17.13
2018-11-20T19:25:53.470Z,17.43
2018-11-20T19:28:55.856Z,17.33
2018-11-20T19:31:53.308Z,17.77
2018-11-20T19:34:39.275Z,17.10
2018-11-20T19:37:32.775Z,17.33
2018-11-20T19:40:20.283Z,16.83
2018-11-20T19:43:03.078Z,17.63
2018-11-20T19:45:45.201Z,16.63
2018-11-20T19:48:32.675Z,18.63
2018-11-20T19:51:26.823Z,16.63
2018-11-20T19:54:14.286Z,16.80
2018-11-20T19:57:02.790Z,14.63
2018-11-20T20:00:02.477Z,16.07
2018-11-20T20:02:55.655Z,14.60
2018-11-20T20:05:46.576Z,15.07
2018-11-20T20:08:43.328Z,15.80
2018-11-20T20:11:36.339Z,15.27
2018-11-20T20:14:42.303Z,15.07
2018-11-20T20:17:30.043Z,16.20
2018-11-20T20:20:15.923Z,14.73
2018-11-20T20:23:04.779Z,15.20
2018-11-20T20:26:17.463Z,15.80
2018-11-20T20:32:14.636Z,14.87
2018-11-20T20:35:16.517Z,15.40
2018-11-20T20:38:02.893Z,15.83
2018-11-20T20:41:02.106Z,16.33
2018-11-20T20:46:55.180Z,16.20
2018-11-20T20:53:09.438Z,16.40
2018-11-20T20:55:59.740Z,16.20
2018-11-20T20:58:52.850Z,16.77
2018-11-20T21:01:42.060Z,16.43
2018-11-20T21:04:49.074Z,14.70
2018-11-20T21:07:43.287Z,15.40
2018-11-20T21:10:45.777Z,17.10
2018-11-20T21:13:36.801Z,13.37
2018-11-20T21:16:36.087Z,15.90
2018-11-20T21:19:43.168Z,16.17
2018-11-20T21:22:32.994Z,16.53
2018-11-20T21:25:21.879Z,17.03
2018-11-20T21:28:25.983Z,16.20
2018-11-20T21:31:19.313Z,15.30
2018-11-20T21:34:11.495Z,15.90
2018-11-20T21:37:22.179Z,16.43
2018-11-20T21:40:21.604Z,15.60
2018-11-20T21:43:07.827Z,16.30
2018-11-20T21:46:12.021Z,15.20
2018-11-20T21:49:18.875Z,16.87
2018-11-20T21:52:05.201Z,16.73
2018-11-20T21:54:58.353Z,15.97
2018-11-20T21:57:56.703Z,15.47
2018-11-20T22:00:59.947Z,16.13
2018-11-20T22:03:47.432Z,16.23
2018-11-20T22:06:54.968Z,15.87
2018-11-20T22:10:04.007Z,16.13
2018-11-20T22:12:51.879Z,16.73
2018-11-20T22:15:45.240Z,15.93
2018-11-20T22:18:38.552Z,16.33
2018-11-20T22:21:32.049Z,17.63
2018-11-20T22:24:12.245Z,17.67
2018-11-20T22:27:09.619Z,16.03
2018-11-20T23:53:21.957Z,18.17
2018-11-20T23:55:52.292Z,17.60
2018-11-20T23:58:40.897Z,20.17
